createdAt,value
2023-03-26T00:01:15.561Z,100.00
2023-03-26T00:03:45.173Z,100.00
2023-03-26T00:06:14.155Z,100.00
2023-03-26T00:08:43.298Z,100.00
2023-03-26T00:11:12.183Z,100.00
2023-03-26T00:13:39.341Z,100.00
2023-03-26T00:16:06.497Z,100.00
2023-03-26T00:18:35.074Z,100.00
2023-03-26T00:21:04.868Z,100.00
2023-03-26T00:23:34.978Z,100.00
2023-03-26T00:26:03.606Z,100.00
2023-03-26T00:28:30.511Z,100.00
2023-03-26T00:30:59.429Z,100.00
2023-03-26T00:33:26.624Z,100.00
2023-03-26T00:35:55.534Z,100.00
2023-03-26T00:38:24.036Z,100.00
2023-03-26T00:40:52.293Z,100.00
2023-03-26T00:43:20.572Z,100.00
2023-03-26T00:45:49.078Z,100.00
2023-03-26T00:48:17.181Z,100.00
2023-03-26T00:50:46.366Z,100.00
2023-03-26T00:53:14.101Z,100.00
2023-03-26T00:55:41.810Z,100.00
2023-03-26T00:58:12.260Z,100.00
2023-03-26T01:00:46.845Z,100.00
2023-03-26T01:03:26.902Z,100.00
2023-03-26T01:05:58.302Z,100.00
2023-03-26T01:08:33.007Z,100.00
2023-03-26T01:11:14.020Z,100.00
2023-03-26T01:13:45.376Z,100.00
2023-03-26T01:16:41.690Z,100.00
2023-03-26T01:19:20.651Z,100.00
2023-03-26T01:21:47.394Z,100.00
2023-03-26T01:24:14.026Z,100.00
2023-03-26T01:26:52.879Z,100.00
2023-03-26T01:29:21.995Z,100.00
2023-03-26T01:32:12.828Z,100.00
2023-03-26T01:34:49.718Z,100.00
2023-03-26T01:37:46.809Z,100.00
2023-03-26T01:40:38.667Z,100.00
2023-03-26T01:43:16.363Z,100.00
2023-03-26T01:45:46.290Z,100.00
2023-03-26T01:48:13.470Z,100.00
2023-03-26T01:50:40.292Z,100.00
2023-03-26T01:53:09.174Z,100.00
2023-03-26T01:55:56.116Z,100.00
2023-03-26T01:58:41.495Z,100.00
2023-03-26T02:01:31.292Z,100.00
2023-03-26T02:04:08.849Z,100.00
2023-03-26T02:06:40.120Z,100.00
2023-03-26T02:09:10.809Z,100.00
2023-03-26T02:11:39.728Z,100.00
2023-03-26T02:14:08.398Z,100.00
2023-03-26T02:16:35.375Z,100.00
2023-03-26T02:19:02.410Z,100.00
2023-03-26T02:21:28.986Z,100.00
2023-03-26T02:24:02.905Z,100.00
2023-03-26T02:26:32.312Z,100.00
2023-03-26T02:28:59.481Z,100.00
2023-03-26T02:31:30.046Z,100.00
2023-03-26T02:33:57.323Z,100.00
2023-03-26T02:36:27.352Z,100.00
2023-03-26T02:38:55.564Z,100.00
2023-03-26T02:41:22.317Z,100.00
2023-03-26T02:43:48.908Z,100.00
2023-03-26T02:46:15.667Z,100.00
2023-03-26T02:48:42.662Z,100.00
2023-03-26T02:51:09.363Z,100.00
2023-03-26T02:53:37.677Z,100.00
2023-03-26T02:56:04.733Z,100.00
2023-03-26T02:58:31.354Z,100.00
2023-03-26T03:00:57.951Z,100.00
2023-03-26T03:03:26.751Z,100.00
2023-03-26T03:05:55.007Z,100.00
2023-03-26T03:08:23.882Z,100.00
2023-03-26T03:11:14.828Z,100.00
2023-03-26T03:13:42.502Z,100.00
2023-03-26T03:16:10.107Z,100.00
2023-03-26T03:18:37.659Z,100.00
2023-03-26T03:21:05.806Z,100.00
2023-03-26T03:23:32.673Z,100.00
2023-03-26T03:25:59.507Z,100.00
2023-03-26T03:28:26.653Z,100.00
2023-03-26T03:30:53.393Z,100.00
2023-03-26T03:33:20.750Z,100.00
2023-03-26T03:35:49.587Z,100.00
2023-03-26T03:38:19.611Z,100.00
2023-03-26T03:40:46.719Z,100.00
2023-03-26T03:43:13.420Z,100.00
2023-03-26T03:45:40.018Z,100.00
2023-03-26T03:48:06.687Z,100.00
2023-03-26T03:50:35.686Z,100.00
2023-03-26T03:53:03.243Z,100.00
2023-03-26T03:55:30.081Z,100.00
2023-03-26T03:57:58.366Z,100.00
2023-03-26T04:00:25.052Z,100.00
2023-03-26T04:02:54.377Z,100.00
2023-03-26T04:05:21.675Z,100.00
2023-03-26T04:07:48.275Z,100.00
2023-03-26T04:10:16.123Z,100.00
2023-03-26T04:12:42.740Z,100.00
2023-03-26T04:15:09.584Z,100.00
2023-03-26T04:17:42.924Z,100.00
2023-03-26T04:20:15.853Z,100.00
2023-03-26T04:22:43.792Z,100.00
2023-03-26T04:25:12.757Z,100.00
2023-03-26T04:27:41.668Z,100.00
2023-03-26T04:30:12.606Z,100.00
2023-03-26T04:32:40.470Z,100.00
2023-03-26T04:35:07.573Z,100.00
2023-03-26T04:37:40.165Z,100.00
2023-03-26T04:40:22.015Z,100.00
2023-03-26T04:42:48.891Z,100.00
2023-03-26T04:45:22.484Z,100.00
2023-03-26T04:47:50.359Z,100.00
2023-03-26T04:50:17.252Z,100.00
2023-03-26T04:52:45.308Z,100.00
2023-03-26T04:55:24.832Z,100.00
2023-03-26T04:57:57.418Z,100.00
2023-03-26T05:00:25.501Z,100.00
2023-03-26T05:02:56.080Z,100.00
2023-03-26T05:05:23.234Z,100.00
2023-03-26T05:07:49.877Z,100.00
2023-03-26T05:10:17.169Z,100.00
2023-03-26T05:12:43.993Z,100.00
2023-03-26T05:15:12.167Z,100.00
2023-03-26T05:17:41.808Z,100.00
2023-03-26T05:20:21.003Z,100.00
2023-03-26T05:22:49.711Z,100.00
2023-03-26T05:25:17.611Z,100.00
2023-03-26T05:27:44.821Z,100.00
2023-03-26T05:30:16.139Z,100.00
2023-03-26T05:32:43.131Z,100.00
2023-03-26T05:35:10.500Z,100.00
2023-03-26T05:37:38.858Z,100.00
2023-03-26T05:40:12.325Z,100.00
2023-03-26T05:42:39.715Z,100.00
2023-03-26T05:45:08.484Z,100.00
2023-03-26T05:47:35.558Z,100.00
2023-03-26T05:50:02.385Z,100.00
2023-03-26T05:52:29.051Z,100.00
2023-03-26T05:54:55.678Z,100.00
2023-03-26T05:57:28.303Z,100.00
2023-03-26T05:59:56.259Z,100.00
2023-03-26T06:02:23.884Z,100.00
2023-03-26T06:04:51.085Z,100.00
2023-03-26T06:07:18.632Z,100.00
2023-03-26T06:09:45.339Z,100.00
2023-03-26T06:12:12.004Z,100.00
2023-03-26T06:14:38.816Z,100.00
2023-03-26T06:17:05.513Z,100.00
2023-03-26T06:19:32.178Z,100.00
2023-03-26T06:21:58.775Z,100.00
2023-03-26T06:24:25.823Z,100.00
2023-03-26T06:26:52.674Z,100.00
2023-03-26T06:29:19.447Z,100.00
2023-03-26T06:31:46.145Z,100.00
2023-03-26T06:34:12.714Z,100.00
2023-03-26T06:36:39.350Z,100.00
2023-03-26T06:39:07.829Z,100.00
2023-03-26T06:41:36.033Z,100.00
2023-03-26T06:44:02.677Z,100.00
2023-03-26T06:46:29.322Z,100.00
2023-03-26T06:48:56.062Z,100.00
2023-03-26T06:51:22.808Z,100.00
2023-03-26T06:53:49.338Z,100.00
2023-03-26T06:56:15.947Z,100.00
2023-03-26T06:58:42.553Z,100.00
2023-03-26T07:01:09.228Z,100.00
2023-03-26T07:03:36.003Z,100.00
2023-03-26T07:06:02.667Z,100.00
2023-03-26T07:08:30.860Z,100.00
2023-03-26T07:10:57.893Z,100.00
2023-03-26T07:13:24.777Z,100.00
2023-03-26T07:15:51.437Z,100.00
2023-03-26T07:18:18.304Z,100.00
2023-03-26T07:20:46.153Z,100.00
2023-03-26T07:23:15.530Z,100.00
2023-03-26T07:25:42.452Z,100.00
2023-03-26T07:28:39.685Z,100.00
2023-03-26T07:31:12.258Z,100.00
2023-03-26T07:34:04.090Z,100.00
2023-03-26T07:36:45.386Z,100.00
2023-03-26T07:39:21.043Z,100.00
2023-03-26T07:42:16.860Z,100.00
2023-03-26T07:44:52.606Z,100.00
2023-03-26T07:47:28.969Z,100.00
2023-03-26T07:49:57.903Z,100.00
2023-03-26T07:52:25.802Z,100.00
2023-03-26T07:54:52.936Z,100.00
2023-03-26T07:57:34.081Z,100.00
2023-03-26T08:00:22.408Z,100.00
2023-03-26T08:03:09.738Z,100.00
2023-03-26T08:05:51.901Z,100.00
2023-03-26T08:08:42.223Z,100.00
2023-03-26T08:11:21.765Z,100.00
2023-03-26T08:14:29.841Z,100.00
2023-03-26T08:17:05.829Z,100.00
2023-03-26T08:19:58.066Z,100.00
2023-03-26T08:22:36.692Z,100.00
2023-03-26T08:25:18.209Z,100.00
2023-03-26T08:28:02.025Z,100.00
2023-03-26T08:30:28.870Z,100.00
2023-03-26T08:33:19.526Z,100.00
2023-03-26T08:35:47.300Z,100.00
2023-03-26T08:38:16.724Z,100.00
2023-03-26T08:40:52.569Z,100.00
2023-03-26T08:43:46.802Z,100.00
2023-03-26T08:46:16.240Z,100.00
2023-03-26T08:49:30.751Z,100.00
2023-03-26T08:52:06.460Z,100.00
2023-03-26T08:55:20.445Z,100.00
2023-03-26T08:58:21.484Z,100.00
2023-03-26T09:01:13.624Z,100.00
2023-03-26T09:04:06.473Z,100.00
2023-03-26T09:06:53.813Z,100.00
2023-03-26T09:09:44.444Z,100.00
2023-03-26T09:12:26.253Z,98.52
2023-03-26T09:15:12.050Z,97.70
2023-03-26T09:17:51.872Z,100.00
2023-03-26T09:20:50.486Z,95.46
2023-03-26T09:23:23.237Z,89.35
2023-03-26T09:25:52.764Z,86.81
2023-03-26T09:29:00.550Z,90.07
2023-03-26T09:31:58.181Z,86.17
2023-03-26T09:34:31.249Z,84.70
2023-03-26T09:37:36.340Z,87.45
2023-03-26T09:40:55.991Z,89.97
2023-03-26T09:43:23.228Z,97.73
2023-03-26T09:46:08.475Z,100.00
2023-03-26T09:48:43.844Z,100.00
2023-03-26T09:51:31.402Z,96.13
2023-03-26T09:54:19.879Z,99.60
2023-03-26T09:57:02.807Z,98.12
2023-03-26T09:59:32.457Z,96.42
2023-03-26T10:02:15.978Z,92.14
2023-03-26T10:05:02.189Z,90.51
2023-03-26T10:07:31.502Z,89.76
2023-03-26T10:10:19.836Z,91.47
2023-03-26T10:12:55.964Z,88.05
2023-03-26T10:15:34.361Z,88.64
2023-03-26T10:18:27.614Z,89.40
2023-03-26T10:21:19.744Z,87.89
2023-03-26T10:24:11.161Z,88.54
2023-03-26T10:27:08.747Z,86.80
2023-03-26T10:29:55.929Z,90.11
2023-03-26T10:32:22.524Z,87.22
2023-03-26T10:35:18.636Z,87.30
2023-03-26T10:38:00.540Z,88.51
2023-03-26T10:40:43.735Z,91.89
2023-03-26T10:43:40.902Z,91.10
2023-03-26T10:46:28.109Z,90.05
2023-03-26T10:49:19.650Z,89.73
2023-03-26T10:51:58.251Z,91.27
2023-03-26T10:54:36.885Z,93.54
2023-03-26T10:57:14.781Z,92.61
2023-03-26T10:59:41.536Z,94.48
2023-03-26T11:02:17.293Z,90.62
2023-03-26T11:04:53.120Z,90.54
2023-03-26T11:07:42.020Z,85.01
2023-03-26T11:10:18.793Z,86.36
2023-03-26T11:12:54.493Z,89.00
2023-03-26T11:15:38.165Z,86.42
2023-03-26T11:18:14.013Z,82.70
2023-03-26T11:20:56.378Z,85.41
2023-03-26T11:24:05.902Z,85.30
2023-03-26T11:26:55.748Z,83.60
2023-03-26T11:29:40.506Z,81.43
2023-03-26T11:32:25.214Z,82.74
2023-03-26T11:35:09.192Z,80.96
2023-03-26T11:37:43.122Z,81.84
2023-03-26T11:40:25.564Z,77.93
2023-03-26T11:42:59.139Z,78.46
2023-03-26T11:45:30.615Z,75.47
2023-03-26T11:48:09.481Z,78.58
2023-03-26T11:50:42.783Z,77.74
2023-03-26T11:53:16.382Z,78.65
2023-03-26T11:55:48.570Z,77.36
2023-03-26T11:58:31.631Z,80.59
2023-03-26T12:00:59.081Z,79.63
2023-03-26T12:03:30.291Z,78.72
2023-03-26T12:05:59.508Z,80.98
2023-03-26T12:08:34.454Z,83.75
2023-03-26T12:11:09.435Z,80.69
2023-03-26T12:13:44.137Z,83.38
2023-03-26T12:16:13.162Z,84.81
2023-03-26T12:18:41.709Z,86.95
2023-03-26T12:21:15.467Z,90.56
2023-03-26T12:24:04.749Z,87.85
2023-03-26T12:26:45.781Z,86.80
2023-03-26T12:29:14.903Z,84.10
2023-03-26T12:31:55.787Z,84.02
2023-03-26T12:34:30.789Z,85.39
2023-03-26T12:37:01.950Z,83.58
2023-03-26T12:40:09.885Z,79.17
2023-03-26T12:44:50.580Z,79.26
2023-03-26T12:45:22.422Z,75.64
2023-03-26T12:48:02.312Z,66.13
2023-03-26T12:50:42.710Z,69.95
2023-03-26T12:53:19.230Z,68.52
2023-03-26T12:56:06.074Z,71.59
2023-03-26T12:58:51.513Z,68.91
2023-03-26T13:01:45.544Z,69.69
2023-03-26T13:05:02.402Z,71.29
2023-03-26T13:07:43.848Z,72.09
2023-03-26T13:10:37.479Z,71.50
2023-03-26T13:13:16.956Z,72.76
2023-03-26T13:15:52.358Z,73.51
2023-03-26T13:18:24.830Z,74.50
2023-03-26T13:20:57.458Z,72.93
2023-03-26T13:24:14.690Z,72.59
2023-03-26T13:26:59.053Z,73.96
2023-03-26T13:29:46.726Z,72.62
2023-03-26T13:32:30.117Z,74.05
2023-03-26T13:35:24.270Z,73.76
2023-03-26T13:38:12.827Z,73.26
2023-03-26T13:40:42.510Z,80.51
2023-03-26T13:43:18.095Z,81.72
2023-03-26T13:46:05.752Z,88.98
2023-03-26T13:48:42.171Z,89.21
2023-03-26T13:51:15.653Z,91.44
2023-03-26T13:54:00.493Z,90.39
2023-03-26T13:56:34.606Z,90.18
2023-03-26T13:59:39.483Z,90.24
2023-03-26T14:02:15.129Z,88.64
2023-03-26T14:04:46.542Z,87.49
2023-03-26T14:07:26.214Z,85.44
2023-03-26T14:10:18.882Z,86.13
2023-03-26T14:12:59.750Z,86.29
2023-03-26T14:15:51.081Z,84.42
2023-03-26T14:18:30.735Z,83.91
2023-03-26T14:21:24.591Z,85.58
2023-03-26T14:24:36.342Z,83.69
2023-03-26T14:27:22.076Z,83.80
2023-03-26T14:30:28.237Z,85.70
2023-03-26T14:33:38.559Z,86.37
2023-03-26T14:36:26.855Z,87.90
2023-03-26T14:39:12.384Z,89.34
2023-03-26T14:41:51.355Z,93.68
2023-03-26T14:44:48.560Z,95.77
2023-03-26T14:47:23.788Z,96.92
2023-03-26T14:50:35.997Z,96.16
2023-03-26T14:53:15.968Z,96.61
2023-03-26T14:55:54.964Z,96.65
2023-03-26T14:58:24.500Z,96.19
2023-03-26T15:01:09.672Z,98.23
2023-03-26T15:03:52.079Z,99.02
2023-03-26T15:06:45.919Z,100.00
2023-03-26T15:09:30.399Z,100.00
2023-03-26T15:12:44.545Z,100.00
2023-03-26T15:15:54.378Z,100.00
2023-03-26T15:18:40.417Z,100.00
2023-03-26T15:21:42.610Z,100.00
2023-03-26T15:24:27.623Z,100.00
2023-03-26T15:26:57.490Z,100.00
2023-03-26T15:29:36.909Z,100.00
2023-03-26T15:32:03.446Z,100.00
2023-03-26T15:34:39.176Z,100.00
2023-03-26T15:37:24.902Z,100.00
2023-03-26T15:40:15.967Z,100.00
2023-03-26T15:43:06.520Z,100.00
2023-03-26T15:45:39.859Z,100.00
2023-03-26T15:48:12.682Z,100.00
2023-03-26T15:50:54.533Z,100.00
2023-03-26T15:53:43.653Z,100.00
2023-03-26T15:56:26.850Z,100.00
2023-03-26T15:59:28.947Z,100.00
2023-03-26T16:02:17.664Z,100.00
2023-03-26T16:05:08.368Z,100.00
2023-03-26T16:07:53.469Z,100.00
2023-03-26T16:10:44.700Z,100.00
2023-03-26T16:13:17.421Z,100.00
2023-03-26T16:15:55.745Z,100.00
2023-03-26T16:18:30.975Z,100.00
2023-03-26T16:21:30.522Z,100.00
2023-03-26T16:24:02.386Z,100.00
2023-03-26T16:26:44.185Z,100.00
2023-03-26T16:29:14.382Z,100.00
2023-03-26T16:32:18.582Z,100.00
2023-03-26T16:34:50.643Z,100.00
2023-03-26T16:37:40.860Z,100.00
2023-03-26T16:40:16.834Z,100.00
2023-03-26T16:43:02.929Z,100.00
2023-03-26T16:45:38.471Z,100.00
2023-03-26T16:48:04.980Z,100.00
2023-03-26T16:50:37.358Z,100.00
2023-03-26T16:53:42.318Z,100.00
2023-03-26T16:56:27.997Z,100.00
2023-03-26T16:59:10.193Z,100.00
2023-03-26T17:01:46.913Z,100.00
2023-03-26T17:04:20.592Z,100.00
2023-03-26T17:07:05.656Z,100.00
2023-03-26T17:09:39.980Z,100.00
2023-03-26T17:12:44.351Z,100.00
2023-03-26T17:15:30.140Z,100.00
2023-03-26T17:18:38.359Z,100.00
2023-03-26T17:21:19.821Z,100.00
2023-03-26T17:24:15.363Z,100.00
2023-03-26T17:26:42.936Z,100.00
2023-03-26T17:29:47.367Z,100.00
2023-03-26T17:32:15.151Z,100.00
2023-03-26T17:34:51.880Z,100.00
2023-03-26T17:37:21.598Z,100.00
2023-03-26T17:40:30.303Z,100.00
2023-03-26T17:43:08.397Z,100.00
2023-03-26T17:45:37.401Z,100.00
2023-03-26T17:48:15.596Z,100.00
2023-03-26T17:50:52.270Z,100.00
2023-03-26T17:53:24.748Z,100.00
2023-03-26T17:55:53.210Z,100.00
2023-03-26T17:58:25.427Z,100.00
2023-03-26T18:01:24.413Z,100.00
2023-03-26T18:03:54.100Z,100.00
2023-03-26T18:06:41.043Z,100.00
2023-03-26T18:09:25.856Z,100.00
2023-03-26T18:12:27.848Z,100.00
2023-03-26T18:15:16.228Z,100.00
2023-03-26T18:17:46.321Z,100.00
2023-03-26T18:20:24.416Z,100.00
2023-03-26T18:22:52.276Z,100.00
2023-03-26T18:25:35.116Z,100.00
2023-03-26T18:28:02.469Z,100.00
2023-03-26T18:30:29.412Z,100.00
2023-03-26T18:33:12.100Z,100.00
2023-03-26T18:35:51.675Z,100.00
2023-03-26T18:38:35.643Z,100.00
2023-03-26T18:41:06.511Z,100.00
2023-03-26T18:43:35.639Z,100.00
2023-03-26T18:46:13.590Z,100.00
2023-03-26T18:48:40.848Z,100.00
2023-03-26T18:51:08.104Z,100.00
2023-03-26T18:53:40.146Z,100.00
2023-03-26T18:56:40.950Z,100.00
2023-03-26T18:59:32.054Z,100.00
2023-03-26T19:02:08.966Z,100.00
2023-03-26T19:04:37.266Z,100.00
2023-03-26T19:07:09.972Z,100.00
2023-03-26T19:09:38.678Z,100.00
2023-03-26T19:12:09.161Z,100.00
2023-03-26T19:15:03.834Z,100.00
2023-03-26T19:17:35.573Z,100.00
2023-03-26T19:20:03.656Z,100.00
2023-03-26T19:22:31.465Z,100.00
2023-03-26T19:25:01.360Z,100.00
2023-03-26T19:27:28.353Z,100.00
2023-03-26T19:29:55.107Z,100.00
2023-03-26T19:32:34.407Z,100.00
2023-03-26T19:35:04.162Z,100.00
2023-03-26T19:37:31.425Z,100.00
2023-03-26T19:40:20.197Z,100.00
2023-03-26T19:42:48.788Z,100.00
2023-03-26T19:45:19.823Z,100.00
2023-03-26T19:48:00.175Z,100.00
2023-03-26T19:50:36.527Z,100.00
2023-03-26T19:53:15.918Z,100.00
2023-03-26T19:55:53.530Z,100.00
2023-03-26T19:58:20.175Z,100.00
2023-03-26T20:00:46.803Z,100.00
2023-03-26T20:03:16.655Z,100.00
2023-03-26T20:05:43.430Z,100.00
2023-03-26T20:08:14.472Z,100.00
2023-03-26T20:10:42.563Z,100.00
2023-03-26T20:13:16.834Z,100.00
2023-03-26T20:16:05.895Z,100.00
2023-03-26T20:18:34.292Z,100.00
2023-03-26T20:21:00.924Z,100.00
2023-03-26T20:23:28.875Z,100.00
2023-03-26T20:25:55.943Z,100.00
2023-03-26T20:28:24.368Z,100.00
2023-03-26T20:30:54.426Z,100.00
2023-03-26T20:33:27.122Z,100.00
2023-03-26T20:35:55.397Z,100.00
2023-03-26T20:38:36.576Z,100.00
2023-03-26T20:41:06.370Z,100.00
2023-03-26T20:43:32.949Z,100.00
2023-03-26T20:45:59.701Z,100.00
2023-03-26T20:48:26.618Z,100.00
2023-03-26T20:50:54.073Z,100.00
2023-03-26T20:53:20.709Z,100.00
2023-03-26T20:55:48.319Z,100.00
2023-03-26T20:58:31.395Z,100.00
2023-03-26T21:01:00.950Z,100.00
2023-03-26T21:03:27.690Z,100.00
2023-03-26T21:05:54.407Z,100.00
2023-03-26T21:08:23.008Z,100.00
2023-03-26T21:10:49.803Z,100.00
2023-03-26T21:13:45.084Z,100.00
2023-03-26T21:16:13.314Z,100.00
2023-03-26T21:18:40.230Z,100.00
2023-03-26T21:21:32.143Z,100.00
2023-03-26T21:24:29.561Z,100.00
2023-03-26T21:27:08.469Z,100.00
2023-03-26T21:29:35.286Z,100.00
2023-03-26T21:32:02.084Z,100.00
2023-03-26T21:34:29.290Z,100.00
2023-03-26T21:36:56.206Z,100.00
2023-03-26T21:39:23.256Z,100.00
2023-03-26T21:42:05.723Z,100.00
2023-03-26T21:44:33.538Z,100.00
2023-03-26T21:47:00.384Z,100.00
2023-03-26T21:49:27.404Z,100.00
2023-03-26T21:51:54.528Z,100.00
2023-03-26T21:54:32.517Z,100.00
2023-03-26T21:57:17.768Z,100.00
2023-03-26T22:00:14.888Z,100.00
2023-03-26T22:02:47.035Z,100.00
2023-03-26T22:05:17.565Z,100.00
2023-03-26T22:07:58.779Z,100.00
2023-03-26T22:10:25.303Z,100.00
2023-03-26T22:12:51.902Z,100.00
2023-03-26T22:15:19.048Z,100.00
2023-03-26T22:17:46.658Z,100.00
2023-03-26T22:20:14.816Z,100.00
2023-03-26T22:22:46.130Z,100.00
2023-03-26T22:25:12.997Z,100.00
2023-03-26T22:27:44.634Z,100.00
2023-03-26T22:30:13.221Z,100.00
2023-03-26T22:32:40.452Z,100.00
2023-03-26T22:35:07.453Z,100.00
2023-03-26T22:37:34.720Z,100.00
2023-03-26T22:40:01.367Z,100.00
2023-03-26T22:42:28.038Z,100.00
2023-03-26T22:44:54.644Z,100.00
2023-03-26T22:47:21.855Z,100.00
2023-03-26T22:49:48.446Z,100.00
2023-03-26T22:52:15.003Z,100.00
2023-03-26T22:54:42.187Z,100.00
2023-03-26T22:57:08.877Z,100.00
2023-03-26T22:59:35.633Z,100.00
2023-03-26T23:02:02.191Z,100.00
2023-03-26T23:04:32.205Z,100.00
2023-03-26T23:06:59.139Z,100.00
2023-03-26T23:09:25.819Z,100.00
2023-03-26T23:11:52.421Z,100.00
2023-03-26T23:14:19.147Z,100.00
2023-03-26T23:16:48.678Z,100.00
2023-03-26T23:19:15.481Z,100.00
2023-03-26T23:21:42.360Z,100.00
2023-03-26T23:24:10.336Z,100.00
2023-03-26T23:26:49.545Z,100.00
2023-03-26T23:29:17.411Z,100.00
2023-03-26T23:31:44.104Z,100.00
2023-03-26T23:34:13.452Z,100.00
2023-03-26T23:36:40.901Z,100.00
2023-03-26T23:39:09.089Z,100.00
2023-03-26T23:41:36.771Z,100.00
2023-03-26T23:44:04.208Z,100.00
2023-03-26T23:46:33.621Z,100.00
2023-03-26T23:49:03.798Z,100.00
2023-03-26T23:51:31.497Z,100.00
2023-03-26T23:53:58.517Z,100.00
2023-03-26T23:56:27.653Z,100.00
2023-03-26T23:58:55.237Z,100.00
